アナディリ の空港の天気 - METARとTAF

アナディリ・ウゴルヌイ空港 ( UHMA / DYR ) - ロシア アナディリ
飛行場実況気象(Metar)
観測時間07/17 04:00 MAGT (07/16 17:00 UTC)
風向・風速南 2m/s
視程200m
天気現象
全天の8割程度の雲 雲底高度 120m
気温8℃
湿度100%
気圧1010hPa
METARUHMA 161700Z 18002MPS 0200 FG BKN004 08/08 Q1010 R01/////// NOSIG RMK TDZ R01/18002MPS END R01/26001G02MPS QFE754/1005
過去の天気等 Google飛行場航空写真 Wunderground天気予報

過去48時間のMETAR

飛行場予報(TAF)
発表時間: 7/17 03:42 MAGT (7/16 16:42 UTC)
予報対象時間: 17日5時 MAGT ~ 18日5時 MAGT
風向・風速南 3m/s 瞬間風速 8m/s
視程6000m
全天の4割程度の雲 雲底高度 610m
17日5時 MAGT ~ 18日5時 MAGT に一時的に
風向・風速東南東 8m/s 瞬間風速 13m/s
視程300m
天気現象
全天の8割程度の雲 雲底高度 60m
TAF UHMA 161642Z 1618/1718 17003G08MPS 6000 SCT020
TEMPO 1618/1718 12008G13MPS 0300 FG BKN002